createdAt,value
2018-07-26T00:02:06.804Z,26.50
2018-07-26T00:04:35.669Z,26.90
2018-07-26T00:07:04.804Z,26.50
2018-07-26T00:09:33.671Z,26.80
2018-07-26T00:12:02.547Z,27.10
2018-07-26T00:14:31.400Z,27.10
2018-07-26T00:17:00.301Z,27.10
2018-07-26T00:19:29.103Z,27.10
2018-07-26T00:21:57.942Z,27.00
2018-07-26T00:24:26.890Z,26.90
2018-07-26T00:26:55.740Z,28.10
2018-07-26T00:29:24.535Z,27.40
2018-07-26T00:31:53.380Z,27.80
2018-07-26T00:34:22.206Z,27.90
2018-07-26T00:36:51.040Z,28.40
2018-07-26T00:39:19.859Z,28.60
2018-07-26T00:41:48.684Z,28.80
2018-07-26T00:44:17.482Z,29.30
2018-07-26T00:46:46.326Z,29.40
2018-07-26T00:49:15.159Z,29.60
2018-07-26T00:51:43.986Z,29.90
2018-07-26T00:54:12.852Z,30.20
2018-07-26T00:56:41.898Z,30.50
2018-07-26T00:59:10.727Z,31.00
2018-07-26T01:01:39.552Z,31.10
2018-07-26T01:04:08.432Z,31.20
2018-07-26T01:06:37.276Z,31.80
2018-07-26T01:09:09.729Z,31.90
2018-07-26T01:11:39.116Z,32.20
2018-07-26T01:14:07.979Z,32.30
2018-07-26T01:16:36.807Z,32.40
2018-07-26T01:19:05.938Z,32.50
2018-07-26T01:21:34.784Z,33.00
2018-07-26T01:24:03.859Z,34.30
2018-07-26T01:26:32.721Z,33.40
2018-07-26T01:29:01.572Z,33.70
2018-07-26T01:31:30.478Z,34.20
2018-07-26T01:33:59.347Z,34.40
2018-07-26T01:36:28.142Z,34.80
2018-07-26T01:38:56.996Z,35.30
2018-07-26T01:41:25.816Z,35.90
2018-07-26T01:44:12.327Z,36.40
2018-07-26T01:46:41.193Z,37.20
2018-07-26T01:49:10.129Z,37.20
2018-07-26T01:51:38.964Z,37.20
2018-07-26T01:54:07.941Z,38.30
2018-07-26T01:56:36.794Z,38.70
2018-07-26T01:59:05.705Z,39.30
2018-07-26T02:01:34.575Z,40.80
2018-07-26T02:04:03.409Z,40.00
2018-07-26T02:06:32.260Z,40.70
2018-07-26T02:09:01.058Z,40.80
2018-07-26T02:11:29.907Z,41.00
2018-07-26T02:13:58.742Z,41.30
2018-07-26T02:16:27.558Z,41.60
2018-07-26T02:18:56.380Z,42.00
2018-07-26T02:21:25.207Z,42.40
2018-07-26T02:23:54.096Z,43.10
2018-07-26T02:26:22.924Z,44.00
2018-07-26T02:28:51.775Z,44.80
2018-07-26T02:31:20.603Z,45.40
2018-07-26T02:33:49.450Z,45.40
2018-07-26T02:36:18.331Z,45.70
2018-07-26T02:38:47.152Z,46.40
2018-07-26T02:41:16.005Z,47.30
2018-07-26T02:43:44.882Z,48.20
2018-07-26T02:46:13.728Z,48.50
2018-07-26T02:48:42.583Z,48.90
2018-07-26T02:51:11.402Z,48.90
2018-07-26T02:53:40.220Z,48.80
2018-07-26T02:56:09.157Z,49.10
2018-07-26T02:58:38.021Z,49.20
2018-07-26T03:01:06.923Z,49.50
2018-07-26T03:03:35.805Z,50.10
2018-07-26T03:06:04.689Z,50.80
2018-07-26T03:08:33.499Z,51.10
2018-07-26T03:11:02.343Z,51.70
2018-07-26T03:13:31.172Z,51.90
2018-07-26T03:16:00.005Z,51.80
2018-07-26T03:18:28.829Z,52.10
2018-07-26T03:20:57.718Z,52.20
2018-07-26T03:23:26.524Z,52.70
2018-07-26T03:25:55.352Z,53.00
2018-07-26T03:28:24.207Z,53.20
2018-07-26T03:30:53.059Z,53.50
2018-07-26T03:33:21.997Z,54.10
2018-07-26T03:35:50.864Z,55.00
2018-07-26T03:38:19.696Z,55.10
2018-07-26T03:40:48.502Z,55.10
2018-07-26T03:43:17.327Z,54.80
2018-07-26T03:45:46.227Z,54.50
2018-07-26T03:48:15.045Z,53.90
2018-07-26T03:50:43.852Z,53.30
2018-07-26T03:53:12.729Z,52.80
2018-07-26T03:55:41.652Z,52.00
2018-07-26T03:58:10.505Z,51.20
2018-07-26T04:00:39.336Z,50.40
2018-07-26T04:03:08.176Z,48.90
2018-07-26T04:05:37.110Z,49.00
2018-07-26T04:08:06.147Z,49.00
2018-07-26T04:10:34.963Z,49.10
2018-07-26T04:13:04.028Z,48.30
2018-07-26T04:15:32.838Z,47.60
2018-07-26T04:18:05.138Z,45.80
2018-07-26T04:20:34.326Z,44.00
2018-07-26T04:23:03.364Z,44.20
2018-07-26T04:25:32.681Z,41.20
2018-07-26T04:28:02.309Z,39.90
2018-07-26T04:30:31.174Z,38.70
2018-07-26T04:33:00.012Z,37.20
2018-07-26T04:35:28.851Z,36.90
2018-07-26T04:37:57.684Z,37.10
2018-07-26T04:40:26.568Z,36.20
2018-07-26T04:42:55.494Z,35.40
2018-07-26T04:45:24.375Z,35.10
2018-07-26T04:47:53.166Z,34.50
2018-07-26T04:50:22.064Z,33.90
2018-07-26T04:52:50.892Z,33.70
2018-07-26T04:55:19.764Z,33.10
2018-07-26T04:57:48.622Z,33.10
2018-07-26T05:00:17.422Z,32.50
2018-07-26T05:02:46.369Z,32.40
2018-07-26T05:05:15.254Z,32.40
2018-07-26T05:07:44.173Z,31.90
2018-07-26T05:10:12.995Z,31.40
2018-07-26T05:12:41.822Z,30.90
2018-07-26T05:15:10.707Z,30.70
2018-07-26T05:17:39.539Z,30.70
2018-07-26T05:20:08.861Z,30.50
2018-07-26T05:22:38.475Z,30.10
2018-07-26T05:25:07.381Z,30.20
2018-07-26T05:27:36.153Z,29.70
2018-07-26T05:30:05.615Z,29.80
2018-07-26T05:32:34.475Z,29.30
2018-07-26T05:35:03.301Z,29.50
2018-07-26T05:37:32.155Z,28.90
2018-07-26T05:40:01.046Z,28.40
2018-07-26T05:42:29.965Z,28.00
2018-07-26T05:44:58.791Z,27.90
2018-07-26T05:47:27.639Z,27.50
2018-07-26T05:49:56.459Z,27.60
2018-07-26T05:52:25.320Z,27.40
2018-07-26T05:54:54.106Z,27.10
2018-07-26T05:57:22.940Z,26.50
2018-07-26T05:59:51.788Z,26.20
2018-07-26T06:02:20.624Z,25.40
2018-07-26T06:04:49.594Z,25.30
2018-07-26T06:07:18.428Z,25.20
2018-07-26T06:09:47.524Z,25.00
2018-07-26T06:12:17.170Z,24.60
2018-07-26T06:14:46.025Z,24.10
2018-07-26T06:17:14.876Z,24.20
2018-07-26T06:19:43.701Z,23.90
2018-07-26T06:22:12.571Z,23.80
2018-07-26T06:24:41.418Z,23.80
2018-07-26T06:27:10.359Z,23.50
2018-07-26T06:29:39.356Z,23.30
2018-07-26T06:32:08.200Z,23.20
2018-07-26T06:34:37.053Z,23.10
2018-07-26T06:37:06.267Z,23.00
2018-07-26T06:39:35.185Z,22.70
2018-07-26T06:42:04.032Z,22.10
2018-07-26T06:44:32.959Z,22.30
2018-07-26T06:47:01.871Z,22.10
2018-07-26T06:49:30.700Z,21.20
2018-07-26T06:51:59.575Z,21.10
2018-07-26T06:54:28.596Z,20.20
2018-07-26T06:56:57.470Z,20.70
2018-07-26T06:59:26.383Z,20.90
2018-07-26T07:01:55.277Z,20.20
2018-07-26T07:04:24.385Z,19.60
2018-07-26T07:06:53.239Z,19.00
2018-07-26T07:09:22.121Z,18.60
2018-07-26T07:11:50.993Z,18.10
2018-07-26T07:14:19.896Z,18.20
2018-07-26T07:16:48.690Z,18.20
2018-07-26T07:19:17.559Z,18.20
2018-07-26T07:21:46.458Z,17.70
2018-07-26T07:24:20.370Z,17.20
2018-07-26T07:26:51.354Z,17.50
2018-07-26T07:29:20.257Z,16.60
2018-07-26T07:31:49.145Z,16.80
2018-07-26T07:34:17.975Z,16.10
2018-07-26T07:36:46.880Z,16.20
2018-07-26T07:39:15.750Z,16.10
2018-07-26T07:41:44.715Z,15.80
2018-07-26T07:44:13.491Z,15.10
2018-07-26T07:46:42.403Z,15.10
2018-07-26T07:49:11.252Z,15.00
2018-07-26T07:51:40.088Z,14.90
2018-07-26T07:54:08.942Z,14.30
2018-07-26T07:56:39.031Z,15.10
2018-07-26T07:59:08.180Z,14.40
2018-07-26T08:01:37.928Z,13.70
2018-07-26T08:04:07.063Z,14.10
2018-07-26T08:06:35.895Z,14.80
2018-07-26T08:09:09.594Z,13.70
2018-07-26T08:11:38.432Z,13.80
2018-07-26T08:14:07.903Z,13.40
2018-07-26T08:16:36.998Z,13.10
2018-07-26T08:19:06.054Z,13.10
2018-07-26T08:21:34.897Z,12.90
2018-07-26T08:24:03.840Z,12.40
2018-07-26T08:26:33.713Z,12.60
2018-07-26T08:29:02.539Z,11.60
2018-07-26T08:31:31.374Z,11.50
2018-07-26T08:34:00.252Z,12.00
2018-07-26T08:36:29.331Z,12.20
2018-07-26T08:38:58.512Z,12.10
2018-07-26T08:41:27.375Z,11.30
2018-07-26T08:43:56.232Z,11.40
2018-07-26T08:46:25.102Z,10.60
2018-07-26T08:48:53.993Z,10.60
2018-07-26T08:51:22.876Z,10.60
2018-07-26T08:53:52.648Z,11.80
2018-07-26T08:56:21.491Z,11.50
2018-07-26T08:58:50.351Z,10.70
2018-07-26T09:01:19.357Z,11.00
2018-07-26T09:03:48.265Z,11.30
2018-07-26T09:06:17.098Z,10.30
2018-07-26T09:08:45.946Z,10.30
2018-07-26T09:11:14.801Z,9.90
2018-07-26T09:13:43.749Z,10.20
2018-07-26T09:16:12.704Z,9.80
2018-07-26T09:18:41.533Z,9.60
2018-07-26T09:21:10.446Z,9.20
2018-07-26T09:23:39.258Z,8.80
2018-07-26T09:26:08.271Z,9.10
2018-07-26T09:28:37.075Z,9.30
2018-07-26T09:31:05.919Z,8.20
2018-07-26T09:33:34.731Z,8.10
2018-07-26T09:36:03.651Z,8.50
2018-07-26T09:38:32.462Z,8.60
2018-07-26T09:41:01.472Z,7.50
2018-07-26T09:43:30.310Z,7.50
2018-07-26T09:45:59.127Z,7.30
2018-07-26T09:48:28.026Z,6.70
2018-07-26T09:50:56.916Z,6.70
2018-07-26T09:53:26.381Z,6.20
2018-07-26T09:55:55.220Z,6.80
2018-07-26T09:58:24.014Z,4.80
2018-07-26T10:00:58.178Z,5.60
2018-07-26T10:03:27.099Z,4.70
2018-07-26T10:05:56.206Z,4.80
2018-07-26T10:08:25.079Z,4.90
2018-07-26T10:10:53.960Z,5.20
2018-07-26T10:13:22.752Z,4.80
2018-07-26T10:15:51.580Z,4.00
2018-07-26T10:18:20.433Z,3.40
2018-07-26T10:20:49.312Z,3.40
2018-07-26T10:23:18.195Z,3.60
2018-07-26T10:25:47.009Z,1.70
2018-07-26T10:28:15.851Z,2.80
2018-07-26T10:30:44.697Z,1.80
2018-07-26T10:33:13.552Z,2.00
2018-07-26T10:35:42.382Z,2.10
2018-07-26T10:38:11.216Z,1.30
2018-07-26T10:40:40.056Z,1.20
2018-07-26T10:43:08.885Z,1.00
2018-07-26T10:45:38.116Z,1.00
2018-07-26T10:48:07.248Z,1.00
2018-07-26T10:50:36.101Z,1.00
2018-07-26T10:53:05.000Z,1.00
2018-07-26T10:55:33.842Z,1.00
2018-07-26T10:58:02.648Z,1.00
2018-07-26T11:00:31.475Z,1.00
2018-07-26T11:03:00.450Z,1.00
2018-07-26T11:05:29.691Z,1.00
2018-07-26T11:07:58.591Z,1.00
2018-07-26T11:10:27.874Z,1.00
2018-07-26T11:12:56.692Z,1.00
2018-07-26T11:15:30.354Z,1.00
2018-07-26T11:18:00.369Z,1.00
2018-07-26T11:20:29.259Z,1.00
2018-07-26T11:22:58.125Z,1.00
2018-07-26T11:25:26.929Z,1.00
2018-07-26T11:27:56.059Z,1.00
2018-07-26T11:30:25.157Z,1.00
2018-07-26T11:32:53.997Z,1.00
2018-07-26T11:35:22.909Z,1.00
2018-07-26T11:37:51.709Z,1.00
2018-07-26T11:40:20.788Z,1.00
2018-07-26T11:42:49.620Z,1.00
2018-07-26T11:45:18.532Z,1.00
2018-07-26T11:47:47.380Z,1.00
2018-07-26T11:50:16.233Z,1.00
2018-07-26T11:52:45.114Z,1.00
2018-07-26T11:55:13.943Z,1.00
2018-07-26T11:57:42.824Z,1.00
2018-07-26T12:00:12.603Z,1.00
2018-07-26T12:02:41.394Z,1.00
2018-07-26T12:05:10.298Z,1.00
2018-07-26T12:07:39.129Z,1.00
2018-07-26T12:10:07.921Z,1.00
2018-07-26T12:12:36.765Z,1.00
2018-07-26T12:15:05.740Z,1.00
2018-07-26T12:17:34.712Z,1.00
2018-07-26T12:20:03.605Z,1.00
2018-07-26T12:22:34.592Z,1.00
2018-07-26T12:25:03.431Z,1.00
2018-07-26T12:27:32.285Z,1.00
2018-07-26T12:30:01.262Z,1.00
2018-07-26T12:32:30.081Z,1.00
2018-07-26T12:34:58.886Z,1.00
2018-07-26T12:37:27.709Z,1.00
2018-07-26T12:42:25.262Z,1.00
2018-07-26T12:44:54.048Z,1.00
2018-07-26T12:47:42.380Z,1.00
2018-07-26T12:50:11.178Z,1.00
2018-07-26T12:52:40.071Z,1.00
2018-07-26T12:55:08.916Z,1.00
2018-07-26T12:57:37.753Z,1.00
2018-07-26T13:00:07.816Z,1.00
2018-07-26T13:02:36.615Z,1.00
2018-07-26T13:08:02.544Z,1.00
2018-07-26T13:10:31.970Z,1.00
2018-07-26T13:13:00.779Z,1.00
2018-07-26T13:15:29.616Z,1.00
2018-07-26T13:17:58.624Z,1.00
2018-07-26T13:22:41.840Z,1.00
2018-07-26T13:25:10.733Z,1.00
2018-07-26T13:27:39.531Z,1.00
2018-07-26T13:30:08.376Z,1.00
2018-07-26T13:32:37.262Z,1.00
2018-07-26T13:35:06.217Z,1.00
2018-07-26T13:37:35.064Z,1.00
2018-07-26T13:40:03.896Z,1.00
2018-07-26T13:42:32.837Z,1.00
2018-07-26T13:45:01.745Z,1.00
2018-07-26T13:47:31.199Z,1.00
2018-07-26T13:50:00.188Z,1.00
2018-07-26T13:52:29.005Z,1.00
2018-07-26T13:54:57.867Z,1.00
2018-07-26T13:57:26.707Z,1.00
2018-07-26T13:59:55.589Z,1.00
2018-07-26T14:02:24.565Z,1.00
2018-07-26T14:04:53.399Z,1.00
2018-07-26T14:07:22.385Z,1.00
2018-07-26T14:09:51.385Z,1.00
2018-07-26T14:12:20.217Z,1.00
2018-07-26T14:14:49.031Z,1.00
2018-07-26T14:17:17.855Z,1.00
2018-07-26T14:19:46.803Z,1.00
2018-07-26T14:22:15.668Z,1.00
2018-07-26T14:24:44.464Z,1.00
2018-07-26T14:27:13.405Z,1.00
2018-07-26T14:29:42.224Z,1.00
2018-07-26T14:32:11.161Z,1.00
2018-07-26T14:34:40.013Z,1.00
2018-07-26T14:37:08.908Z,1.00
2018-07-26T14:39:37.748Z,1.00
2018-07-26T14:42:06.560Z,1.00
2018-07-26T14:44:35.429Z,1.00
2018-07-26T14:47:04.244Z,1.00
2018-07-26T14:49:33.121Z,1.00
2018-07-26T14:52:01.986Z,1.00
2018-07-26T14:54:30.915Z,1.00
2018-07-26T14:56:59.732Z,1.00
2018-07-26T14:59:28.599Z,1.00
2018-07-26T15:01:58.205Z,1.00
2018-07-26T15:04:27.002Z,1.00
2018-07-26T15:06:55.882Z,1.00
2018-07-26T15:09:24.860Z,1.00
2018-07-26T15:14:50.986Z,1.00
2018-07-26T15:17:19.824Z,1.00
2018-07-26T15:19:48.636Z,1.00
2018-07-26T15:22:17.522Z,1.00
2018-07-26T15:24:46.377Z,1.00
2018-07-26T15:27:15.191Z,1.00
2018-07-26T15:29:44.086Z,1.00
2018-07-26T15:32:12.922Z,1.00
2018-07-26T15:34:41.711Z,1.00
2018-07-26T15:37:10.530Z,1.00
2018-07-26T15:39:39.416Z,1.00
2018-07-26T15:42:08.572Z,1.00
2018-07-26T15:44:37.648Z,1.00
2018-07-26T15:47:06.466Z,1.00
2018-07-26T15:49:35.266Z,1.00
2018-07-26T15:52:04.158Z,1.00
2018-07-26T15:54:33.962Z,1.00
2018-07-26T15:57:02.849Z,1.00
2018-07-26T15:59:31.649Z,1.00
2018-07-26T16:02:00.497Z,1.00
2018-07-26T16:04:29.964Z,1.00
2018-07-26T16:06:58.860Z,1.00
2018-07-26T16:09:27.748Z,1.00
2018-07-26T16:11:56.544Z,1.00
2018-07-26T16:14:25.724Z,1.00
2018-07-26T16:16:54.589Z,1.00
2018-07-26T16:19:23.406Z,1.00
2018-07-26T16:21:52.245Z,1.00
2018-07-26T16:24:21.058Z,1.00
2018-07-26T16:26:49.885Z,1.00
2018-07-26T16:29:19.028Z,1.00
2018-07-26T16:31:47.910Z,1.00
2018-07-26T16:34:16.748Z,1.00
2018-07-26T16:36:45.649Z,1.00
2018-07-26T16:39:14.500Z,1.00
2018-07-26T16:41:43.348Z,1.00
2018-07-26T16:44:12.198Z,1.00
2018-07-26T16:46:41.052Z,1.00
2018-07-26T16:49:09.992Z,1.00
2018-07-26T16:51:38.884Z,1.00
2018-07-26T16:54:07.729Z,1.00
2018-07-26T16:56:36.538Z,1.00
2018-07-26T16:59:05.420Z,1.00
2018-07-26T17:01:34.336Z,1.00
2018-07-26T17:04:03.139Z,1.00
2018-07-26T17:06:31.968Z,1.00
2018-07-26T17:09:00.803Z,1.00
2018-07-26T17:11:29.660Z,1.00
2018-07-26T17:13:58.584Z,1.00
2018-07-26T17:16:27.419Z,1.00
2018-07-26T17:18:56.312Z,1.00
2018-07-26T17:24:22.180Z,1.00
2018-07-26T17:26:51.026Z,1.00
2018-07-26T17:29:19.896Z,1.00
2018-07-26T17:31:48.737Z,1.00
2018-07-26T17:34:17.681Z,1.00
2018-07-26T17:36:46.524Z,1.00
2018-07-26T17:39:15.424Z,1.00
2018-07-26T17:41:44.253Z,1.00
2018-07-26T17:44:13.104Z,1.00
2018-07-26T17:46:42.027Z,1.00
2018-07-26T17:49:10.886Z,1.00
2018-07-26T17:51:39.743Z,1.00
2018-07-26T17:54:08.696Z,1.00
2018-07-26T17:56:37.602Z,1.00
2018-07-26T17:59:06.895Z,1.00
2018-07-26T18:01:35.757Z,1.00
2018-07-26T18:04:04.558Z,1.00
2018-07-26T18:06:33.392Z,1.00
2018-07-26T18:09:02.236Z,1.00
2018-07-26T18:11:31.080Z,1.00
2018-07-26T18:13:59.868Z,1.00
2018-07-26T18:16:28.724Z,1.00
2018-07-26T18:18:57.600Z,1.00
2018-07-26T18:21:26.517Z,1.00
2018-07-26T18:23:55.316Z,1.00
2018-07-26T18:26:24.207Z,1.00
2018-07-26T18:28:53.022Z,1.00
2018-07-26T18:31:21.975Z,1.00
2018-07-26T18:33:50.794Z,1.00
2018-07-26T18:36:19.662Z,1.00
2018-07-26T18:38:48.518Z,1.00
2018-07-26T18:41:17.308Z,1.00
2018-07-26T18:43:46.144Z,1.00
2018-07-26T18:46:15.026Z,1.00
2018-07-26T18:48:43.847Z,1.00
2018-07-26T18:51:12.678Z,1.00
2018-07-26T18:53:41.507Z,1.20
2018-07-26T18:56:10.423Z,1.00
2018-07-26T18:58:39.246Z,1.20
2018-07-26T19:01:08.093Z,2.00
2018-07-26T19:03:36.903Z,2.60
2018-07-26T19:06:06.020Z,3.20
2018-07-26T19:08:34.889Z,3.60
2018-07-26T19:11:03.733Z,4.90
2018-07-26T19:13:32.551Z,4.40
2018-07-26T19:16:01.416Z,4.70
2018-07-26T19:18:30.272Z,5.10
2018-07-26T19:20:59.080Z,5.20
2018-07-26T19:23:27.899Z,5.70
2018-07-26T19:25:56.804Z,5.80
2018-07-26T19:28:25.614Z,6.20
2018-07-26T19:30:54.462Z,6.40
2018-07-26T19:33:23.321Z,6.60
2018-07-26T19:35:52.176Z,6.90
2018-07-26T19:38:21.055Z,7.10
2018-07-26T19:40:49.909Z,7.40
2018-07-26T19:43:18.799Z,7.60
2018-07-26T19:45:47.662Z,7.90
2018-07-26T19:48:16.481Z,7.90
2018-07-26T19:50:45.340Z,8.10
2018-07-26T19:53:14.171Z,8.50
2018-07-26T19:55:43.045Z,8.80
2018-07-26T19:58:11.927Z,9.10
2018-07-26T20:00:40.786Z,9.10
2018-07-26T20:03:09.649Z,9.00
2018-07-26T20:05:38.500Z,9.00
2018-07-26T20:08:07.894Z,9.00
2018-07-26T20:10:36.732Z,9.70
2018-07-26T20:13:05.687Z,9.60
2018-07-26T20:15:34.484Z,9.90
2018-07-26T20:18:03.349Z,10.20
2018-07-26T20:20:32.195Z,10.40
2018-07-26T20:23:01.069Z,10.70
2018-07-26T20:25:29.977Z,10.80
2018-07-26T20:27:58.816Z,11.10
2018-07-26T20:30:27.679Z,11.40
2018-07-26T20:32:56.636Z,11.70
2018-07-26T20:35:25.457Z,11.90
2018-07-26T20:37:54.320Z,12.00
2018-07-26T20:40:23.191Z,12.10
2018-07-26T20:42:52.032Z,12.30
2018-07-26T20:45:20.880Z,12.50
2018-07-26T20:47:49.695Z,12.60
2018-07-26T20:50:18.553Z,12.90
2018-07-26T20:52:47.424Z,13.10
2018-07-26T20:55:16.240Z,13.30
2018-07-26T20:57:45.035Z,13.50
2018-07-26T21:00:14.282Z,13.70
2018-07-26T21:02:43.568Z,13.90
2018-07-26T21:05:12.467Z,14.00
2018-07-26T21:07:41.302Z,13.80
2018-07-26T21:10:10.894Z,14.00
2018-07-26T21:12:39.755Z,14.00
2018-07-26T21:15:09.546Z,14.20
2018-07-26T21:17:38.407Z,14.40
2018-07-26T21:20:07.270Z,14.50
2018-07-26T21:22:36.144Z,14.60
2018-07-26T21:25:05.045Z,14.70
2018-07-26T21:27:33.851Z,14.80
2018-07-26T21:30:02.736Z,15.00
2018-07-26T21:32:31.567Z,15.00
2018-07-26T21:35:00.416Z,14.90
2018-07-26T21:37:29.211Z,14.90
2018-07-26T21:39:58.101Z,15.00
2018-07-26T21:42:26.998Z,15.30
2018-07-26T21:44:55.796Z,15.50
2018-07-26T21:47:24.669Z,15.60
2018-07-26T21:49:53.556Z,15.60
2018-07-26T21:52:22.450Z,15.50
2018-07-26T21:54:51.330Z,15.60
2018-07-26T21:57:20.202Z,15.40
2018-07-26T21:59:49.069Z,15.40
2018-07-26T22:02:17.959Z,15.10
2018-07-26T22:04:46.756Z,15.20
2018-07-26T22:07:15.592Z,15.00
2018-07-26T22:09:44.435Z,15.00
2018-07-26T22:12:13.262Z,14.90
2018-07-26T22:14:42.058Z,14.70
2018-07-26T22:17:11.098Z,14.60
2018-07-26T22:19:39.959Z,14.70
2018-07-26T22:22:08.917Z,14.60
2018-07-26T22:24:37.795Z,14.60
2018-07-26T22:27:06.718Z,14.60
2018-07-26T22:29:35.589Z,14.50
2018-07-26T22:32:04.419Z,14.70
2018-07-26T22:34:33.321Z,15.50
2018-07-26T22:37:02.183Z,14.90
2018-07-26T22:39:31.041Z,14.80
2018-07-26T22:42:00.106Z,15.00
2018-07-26T22:44:28.935Z,15.00
2018-07-26T22:46:57.800Z,15.20
2018-07-26T22:49:26.619Z,15.20
2018-07-26T22:51:55.512Z,15.30
2018-07-26T22:54:24.318Z,15.50
2018-07-26T22:56:53.191Z,15.80
2018-07-26T22:59:22.021Z,16.00
2018-07-26T23:01:50.810Z,16.40
2018-07-26T23:04:19.627Z,16.40
2018-07-26T23:06:48.511Z,16.40
2018-07-26T23:09:17.306Z,16.40
2018-07-26T23:11:46.167Z,16.30
2018-07-26T23:14:15.001Z,16.30
2018-07-26T23:16:43.884Z,16.30
2018-07-26T23:19:12.724Z,16.30
2018-07-26T23:21:41.552Z,15.60
2018-07-26T23:24:10.517Z,16.30
2018-07-26T23:26:39.365Z,16.60
2018-07-26T23:29:08.244Z,16.80
2018-07-26T23:31:37.121Z,16.90
2018-07-26T23:34:05.959Z,17.10
2018-07-26T23:36:34.840Z,17.30
2018-07-26T23:39:04.341Z,17.40
2018-07-26T23:41:33.204Z,17.50
2018-07-26T23:44:02.040Z,17.60
2018-07-26T23:46:30.958Z,17.80
2018-07-26T23:48:59.787Z,17.90
2018-07-26T23:51:28.651Z,18.00
2018-07-26T23:53:57.504Z,18.20
2018-07-26T23:56:26.343Z,18.40
2018-07-26T23:58:55.244Z,18.50
